EVA52 RCTP-KIAH
Flight info
| Callsign | EVA52 |
|---|---|
| Flight time | N/A |
| Altitude | 31000 |
| Route | MOLKA1C MOLKA M750 MADOG Y753 JAKAL A1 KEC Y43 ISEBI Y81 TASOT Y57 POROT OTR11 LEPKI/N0498F330 DCT 37N160E 37N165E 38N170E 42N180E 45N170W/N0484F350 46N160W 45N150W 44N145W 43N140W 42N130W/N0481F370 DCT LATNE DCT RBL DCT FMG DCT ILC DCT BCE DCT KD42Q DCT KA33U DCT KF24Y DCT ACT DCT OILLL GUSHR3 |
| Aircraft | B77W/H-SDE1E2E3FGHIJ2J3J4J5M1RWXY/LB1D1 |
Departure
| Time | N/A |
|---|---|
| Airport | Taiwan Taoyuan International Airport (RCTP) |
Arrival
| Time | 2026-05-04 05:39 |
|---|---|
| Airport | George Bush Intercontinental Airport (KIAH) |
| Time | Latitude | Longitude | Altitude | Speed | Heading |
|---|---|---|---|---|---|
| 2026-05-04 02:33 | 42.27968 | -132.05549 | 37075 ft | 456 kts | 93° |
| 2026-05-04 02:34 | 42.26895 | -131.97098 | 37067 ft | 456 kts | 94° |
| 2026-05-04 02:34 | 42.25818 | -131.88668 | 37068 ft | 456 kts | 94° |
| 2026-05-04 02:35 | 42.24741 | -131.80290 | 37064 ft | 456 kts | 94° |
| 2026-05-04 02:35 | 42.23650 | -131.71852 | 37061 ft | 456 kts | 94° |
| 2026-05-04 02:36 | 42.22554 | -131.63429 | 37060 ft | 456 kts | 94° |
| 2026-05-04 02:36 | 42.21450 | -131.54993 | 37059 ft | 456 kts | 94° |
| 2026-05-04 02:37 | 42.20341 | -131.46563 | 37054 ft | 456 kts | 94° |
| 2026-05-04 02:37 | 42.19226 | -131.38139 | 37050 ft | 456 kts | 95° |
| 2026-05-04 02:38 | 42.18111 | -131.29766 | 37047 ft | 456 kts | 95° |
| 2026-05-04 02:38 | 42.16980 | -131.21323 | 37042 ft | 456 kts | 95° |
| 2026-05-04 02:39 | 42.15844 | -131.12890 | 37042 ft | 456 kts | 95° |
| 2026-05-04 02:39 | 42.14711 | -131.04528 | 37023 ft | 456 kts | 95° |
| 2026-05-04 02:40 | 42.13564 | -130.96113 | 37041 ft | 456 kts | 95° |
| 2026-05-04 02:40 | 42.12409 | -130.87691 | 37041 ft | 456 kts | 95° |
| 2026-05-04 02:41 | 42.11249 | -130.79270 | 37033 ft | 456 kts | 95° |
| 2026-05-04 02:41 | 42.10090 | -130.70911 | 37023 ft | 457 kts | 96° |
| 2026-05-04 02:42 | 42.08918 | -130.62506 | 37023 ft | 457 kts | 96° |
| 2026-05-04 02:42 | 42.07740 | -130.54101 | 37022 ft | 457 kts | 96° |
| 2026-05-04 02:43 | 42.06555 | -130.45692 | 37019 ft | 457 kts | 96° |
| 2026-05-04 02:43 | 42.05362 | -130.37275 | 37023 ft | 457 kts | 96° |
| 2026-05-04 02:44 | 42.03741 | -130.25915 | 37019 ft | 458 kts | 96° |
| 2026-05-04 02:44 | 41.99526 | -129.95120 | 37002 ft | 458 kts | 92° |
| 2026-05-04 02:45 | 41.96713 | -129.60917 | 37003 ft | 460 kts | 93° |
| 2026-05-04 02:45 | 41.93734 | -129.26860 | 36997 ft | 463 kts | 93° |
| 2026-05-04 02:46 | 41.90614 | -128.92362 | 36989 ft | 466 kts | 94° |
| 2026-05-04 02:46 | 41.87376 | -128.57751 | 36971 ft | 468 kts | 94° |
| 2026-05-04 02:47 | 41.84024 | -128.23064 | 36975 ft | 469 kts | 95° |
| 2026-05-04 02:47 | 41.80577 | -127.88506 | 36968 ft | 471 kts | 95° |
| 2026-05-04 02:48 | 41.76993 | -127.53664 | 36973 ft | 472 kts | 96° |
| 2026-05-04 02:48 | 41.73297 | -127.18799 | 36976 ft | 472 kts | 96° |
| 2026-05-04 02:49 | 41.69282 | -126.84269 | 36935 ft | 474 kts | 103° |
| 2026-05-04 02:49 | 41.59097 | -126.51601 | 37046 ft | 474 kts | 111° |
| 2026-05-04 02:50 | 41.53851 | -126.35380 | 36942 ft | 476 kts | 111° |
| 2026-05-04 02:50 | 41.48584 | -126.19195 | 36974 ft | 475 kts | 111° |
| 2026-05-04 02:50 | 41.37957 | -125.86831 | 36981 ft | 476 kts | 111° |
| 2026-05-04 02:51 | 41.27302 | -125.54762 | 36981 ft | 478 kts | 112° |
| 2026-05-04 02:51 | 41.16446 | -125.22468 | 36986 ft | 479 kts | 112° |
| 2026-05-04 02:52 | 41.05462 | -124.90166 | 36983 ft | 480 kts | 112° |
| 2026-05-04 02:52 | 40.94403 | -124.58016 | 36993 ft | 480 kts | 113° |
| 2026-05-04 02:53 | 40.83310 | -124.26131 | 37003 ft | 479 kts | 113° |
| 2026-05-04 02:53 | 40.72134 | -123.94365 | 37001 ft | 478 kts | 114° |
| 2026-05-04 02:54 | 40.71248 | -123.91866 | 36971 ft | 469 kts | 114° |
| 2026-05-04 02:54 | 40.68465 | -123.84018 | 36996 ft | 476 kts | 114° |
| 2026-05-04 02:55 | 40.64204 | -123.72038 | 36980 ft | 483 kts | 114° |
| 2026-05-04 02:56 | 40.61356 | -123.64060 | 36962 ft | 484 kts | 114° |
| 2026-05-04 02:56 | 40.58483 | -123.56039 | 36951 ft | 484 kts | 114° |
| 2026-05-04 02:57 | 40.55613 | -123.48047 | 36954 ft | 483 kts | 114° |
| 2026-05-04 02:57 | 40.52736 | -123.40057 | 36935 ft | 480 kts | 114° |
| 2026-05-04 02:58 | 40.49897 | -123.32194 | 36938 ft | 479 kts | 114° |
| 2026-05-04 02:58 | 40.47037 | -123.24292 | 36934 ft | 478 kts | 114° |
| 2026-05-04 02:59 | 40.44174 | -123.16405 | 36939 ft | 477 kts | 114° |
| 2026-05-04 02:59 | 40.41308 | -123.08534 | 36936 ft | 477 kts | 114° |
| 2026-05-04 03:00 | 40.38461 | -123.00734 | 36942 ft | 476 kts | 114° |
| 2026-05-04 03:00 | 40.35590 | -122.92885 | 36944 ft | 477 kts | 114° |
| 2026-05-04 03:01 | 40.32711 | -122.85041 | 36955 ft | 477 kts | 115° |
| 2026-05-04 03:01 | 40.29826 | -122.77200 | 36938 ft | 478 kts | 115° |
| 2026-05-04 03:02 | 40.26926 | -122.69340 | 36942 ft | 479 kts | 115° |
| 2026-05-04 03:02 | 40.24019 | -122.61479 | 36939 ft | 479 kts | 115° |
| 2026-05-04 03:03 | 40.21103 | -122.53617 | 36938 ft | 480 kts | 115° |
| 2026-05-04 03:03 | 40.18203 | -122.45820 | 36936 ft | 480 kts | 115° |
| 2026-05-04 03:04 | 40.15274 | -122.37962 | 36928 ft | 480 kts | 115° |
| 2026-05-04 03:04 | 40.12339 | -122.30109 | 36927 ft | 480 kts | 115° |
| 2026-05-04 03:05 | 40.09604 | -122.22148 | 36928 ft | 480 kts | 109° |
| 2026-05-04 03:05 | 40.07774 | -122.13790 | 36937 ft | 479 kts | 104° |
| 2026-05-04 03:06 | 40.06066 | -122.05360 | 36932 ft | 480 kts | 104° |
| 2026-05-04 03:06 | 40.04338 | -121.96979 | 36944 ft | 481 kts | 104° |
| 2026-05-04 03:07 | 40.02572 | -121.88554 | 36947 ft | 481 kts | 104° |
| 2026-05-04 03:07 | 40.00797 | -121.80159 | 36937 ft | 482 kts | 105° |
| 2026-05-04 03:08 | 39.99305 | -121.73128 | 36955 ft | 482 kts | 105° |
| 2026-05-04 03:08 | 39.97516 | -121.64723 | 36952 ft | 483 kts | 105° |
| 2026-05-04 03:09 | 39.95714 | -121.56286 | 36960 ft | 483 kts | 105° |
| 2026-05-04 03:09 | 39.93901 | -121.47825 | 36957 ft | 483 kts | 105° |
| 2026-05-04 03:10 | 39.92095 | -121.39436 | 36964 ft | 483 kts | 105° |
| 2026-05-04 03:10 | 39.90272 | -121.30998 | 36974 ft | 484 kts | 105° |
| 2026-05-04 03:11 | 39.88450 | -121.22598 | 36974 ft | 484 kts | 105° |
| 2026-05-04 03:11 | 39.86610 | -121.14150 | 36966 ft | 484 kts | 105° |
| 2026-05-04 03:12 | 39.84768 | -121.05720 | 36961 ft | 485 kts | 105° |
| 2026-05-04 03:12 | 39.82913 | -120.97266 | 36943 ft | 485 kts | 105° |
| 2026-05-04 03:13 | 39.81062 | -120.88865 | 36948 ft | 485 kts | 105° |
| 2026-05-04 03:13 | 39.79193 | -120.80411 | 36940 ft | 486 kts | 106° |
| 2026-05-04 03:14 | 39.77317 | -120.71955 | 36933 ft | 486 kts | 106° |
| 2026-05-04 03:14 | 39.75434 | -120.63505 | 36929 ft | 487 kts | 106° |
| 2026-05-04 03:15 | 39.73551 | -120.55090 | 36934 ft | 487 kts | 106° |
| 2026-05-04 03:15 | 39.71652 | -120.46629 | 36936 ft | 487 kts | 106° |
| 2026-05-04 03:16 | 39.69748 | -120.38178 | 36929 ft | 488 kts | 107° |
| 2026-05-04 03:16 | 39.67870 | -120.29878 | 36943 ft | 488 kts | 107° |
| 2026-05-04 03:17 | 39.65960 | -120.21464 | 36962 ft | 489 kts | 107° |
| 2026-05-04 03:17 | 39.64031 | -120.13000 | 36981 ft | 489 kts | 107° |
| 2026-05-04 03:18 | 39.62091 | -120.04515 | 36992 ft | 490 kts | 107° |
| 2026-05-04 03:18 | 39.60142 | -119.96027 | 37009 ft | 491 kts | 107° |
| 2026-05-04 03:19 | 39.58195 | -119.87574 | 37006 ft | 492 kts | 108° |
| 2026-05-04 03:19 | 39.56230 | -119.79077 | 36985 ft | 493 kts | 108° |
| 2026-05-04 03:20 | 39.54255 | -119.70563 | 36979 ft | 493 kts | 108° |
| 2026-05-04 03:20 | 39.52340 | -119.62267 | 36972 ft | 494 kts | 107° |
| 2026-05-04 03:21 | 39.50478 | -119.53741 | 36952 ft | 494 kts | 107° |
| 2026-05-04 03:21 | 39.48625 | -119.45144 | 36932 ft | 495 kts | 107° |
| 2026-05-04 03:22 | 39.46757 | -119.36562 | 36916 ft | 495 kts | 107° |
| 2026-05-04 03:22 | 39.44880 | -119.28024 | 36892 ft | 496 kts | 108° |
| 2026-05-04 03:23 | 39.42979 | -119.19431 | 36888 ft | 497 kts | 108° |
| 2026-05-04 03:23 | 39.41070 | -119.10830 | 36894 ft | 498 kts | 108° |
| 2026-05-04 03:24 | 39.39151 | -119.02219 | 36905 ft | 498 kts | 108° |
| 2026-05-04 03:24 | 39.37236 | -118.93654 | 36923 ft | 499 kts | 108° |
| 2026-05-04 03:25 | 39.35301 | -118.85027 | 36935 ft | 500 kts | 108° |
| 2026-05-04 03:25 | 39.33355 | -118.76392 | 36944 ft | 500 kts | 108° |
| 2026-05-04 03:26 | 39.31397 | -118.67734 | 36943 ft | 501 kts | 108° |
| 2026-05-04 03:26 | 39.29431 | -118.59074 | 36935 ft | 502 kts | 108° |
| 2026-05-04 03:27 | 39.27468 | -118.50463 | 36917 ft | 503 kts | 108° |
| 2026-05-04 03:27 | 39.25476 | -118.41759 | 36903 ft | 504 kts | 108° |
| 2026-05-04 03:28 | 39.23493 | -118.33124 | 36882 ft | 505 kts | 108° |
| 2026-05-04 03:28 | 39.21487 | -118.24423 | 36882 ft | 506 kts | 108° |
| 2026-05-04 03:29 | 39.19471 | -118.15711 | 36874 ft | 507 kts | 109° |
| 2026-05-04 03:29 | 39.17446 | -118.06987 | 36870 ft | 508 kts | 109° |
| 2026-05-04 03:30 | 39.15410 | -117.98259 | 36866 ft | 509 kts | 109° |
| 2026-05-04 03:30 | 39.13377 | -117.89572 | 36864 ft | 510 kts | 109° |
| 2026-05-04 03:31 | 39.11315 | -117.80796 | 36863 ft | 512 kts | 109° |
| 2026-05-04 03:31 | 39.09245 | -117.72016 | 36856 ft | 513 kts | 109° |
| 2026-05-04 03:32 | 39.07163 | -117.63221 | 36863 ft | 514 kts | 110° |
| 2026-05-04 03:32 | 39.05080 | -117.54452 | 36859 ft | 515 kts | 110° |
| 2026-05-04 03:33 | 39.02975 | -117.45625 | 36872 ft | 516 kts | 110° |
| 2026-05-04 03:33 | 39.00857 | -117.36778 | 36868 ft | 517 kts | 110° |
| 2026-05-04 03:34 | 38.98742 | -117.27976 | 36858 ft | 518 kts | 110° |
| 2026-05-04 03:34 | 38.96606 | -117.19117 | 36872 ft | 519 kts | 110° |
| 2026-05-04 03:35 | 38.94474 | -117.10310 | 36873 ft | 520 kts | 110° |
| 2026-05-04 03:35 | 38.92318 | -117.01436 | 36881 ft | 521 kts | 111° |
| 2026-05-04 03:36 | 38.90147 | -116.92537 | 36875 ft | 523 kts | 111° |
| 2026-05-04 03:36 | 38.87963 | -116.83616 | 36885 ft | 524 kts | 111° |
| 2026-05-04 03:37 | 38.85767 | -116.74676 | 36884 ft | 525 kts | 111° |
| 2026-05-04 03:37 | 38.83577 | -116.65795 | 36896 ft | 526 kts | 111° |
| 2026-05-04 03:38 | 38.81360 | -116.56841 | 36892 ft | 527 kts | 112° |
| 2026-05-04 03:38 | 38.79127 | -116.47852 | 36890 ft | 528 kts | 112° |
| 2026-05-04 03:39 | 38.76884 | -116.38857 | 36894 ft | 530 kts | 112° |
| 2026-05-04 03:39 | 38.74629 | -116.29850 | 36895 ft | 531 kts | 112° |
| 2026-05-04 03:40 | 38.72379 | -116.20893 | 36862 ft | 532 kts | 112° |
| 2026-05-04 03:40 | 38.70099 | -116.11849 | 36864 ft | 534 kts | 112° |
| 2026-05-04 03:41 | 38.67808 | -116.02797 | 36857 ft | 535 kts | 112° |
| 2026-05-04 03:41 | 38.65505 | -115.93732 | 36846 ft | 536 kts | 113° |
| 2026-05-04 03:42 | 38.63189 | -115.84646 | 36828 ft | 537 kts | 113° |
| 2026-05-04 03:42 | 38.60873 | -115.75593 | 36826 ft | 538 kts | 113° |
| 2026-05-04 03:43 | 38.58529 | -115.66468 | 36821 ft | 540 kts | 113° |
| 2026-05-04 03:43 | 38.56176 | -115.57339 | 36820 ft | 542 kts | 114° |
| 2026-05-04 03:44 | 38.53801 | -115.48162 | 36825 ft | 544 kts | 114° |
| 2026-05-04 03:44 | 38.51413 | -115.38969 | 36814 ft | 545 kts | 114° |
| 2026-05-04 03:45 | 38.49037 | -115.29842 | 36805 ft | 544 kts | 114° |
| 2026-05-04 03:45 | 38.46637 | -115.20667 | 36805 ft | 545 kts | 114° |
| 2026-05-04 03:46 | 38.44227 | -115.11490 | 36813 ft | 546 kts | 114° |
| 2026-05-04 03:46 | 38.41795 | -115.02264 | 36813 ft | 549 kts | 114° |
| 2026-05-04 03:47 | 38.39363 | -114.93067 | 36807 ft | 552 kts | 115° |
| 2026-05-04 03:47 | 38.36895 | -114.83765 | 36818 ft | 554 kts | 115° |
| 2026-05-04 03:48 | 38.34413 | -114.74451 | 36834 ft | 555 kts | 115° |
| 2026-05-04 03:48 | 38.31914 | -114.65098 | 36817 ft | 558 kts | 115° |
| 2026-05-04 03:49 | 38.29420 | -114.55800 | 36855 ft | 558 kts | 115° |
| 2026-05-04 03:49 | 38.26891 | -114.46404 | 36841 ft | 561 kts | 115° |
| 2026-05-04 03:50 | 38.24357 | -114.37000 | 36811 ft | 563 kts | 115° |
| 2026-05-04 03:50 | 38.21896 | -114.27539 | 36833 ft | 563 kts | 114° |
| 2026-05-04 03:51 | 38.19475 | -114.18110 | 36853 ft | 564 kts | 114° |
| 2026-05-04 03:51 | 38.17023 | -114.08631 | 36862 ft | 565 kts | 114° |
| 2026-05-04 03:52 | 38.14549 | -113.99152 | 36854 ft | 566 kts | 114° |
| 2026-05-04 03:52 | 38.12056 | -113.89651 | 36871 ft | 566 kts | 114° |
| 2026-05-04 03:53 | 38.09976 | -113.81751 | 36868 ft | 567 kts | 114° |
| 2026-05-04 03:53 | 38.07467 | -113.72247 | 36860 ft | 568 kts | 114° |
| 2026-05-04 03:54 | 38.04533 | -113.61183 | 36862 ft | 569 kts | 115° |
| 2026-05-04 03:54 | 38.02414 | -113.53218 | 36856 ft | 569 kts | 115° |
| 2026-05-04 03:55 | 37.99890 | -113.43760 | 36859 ft | 569 kts | 115° |
| 2026-05-04 03:55 | 37.97339 | -113.34240 | 36880 ft | 569 kts | 115° |
| 2026-05-04 03:56 | 37.94782 | -113.24737 | 36913 ft | 570 kts | 115° |
| 2026-05-04 03:56 | 37.92216 | -113.15233 | 36937 ft | 571 kts | 115° |
| 2026-05-04 03:57 | 37.89650 | -113.05759 | 36957 ft | 571 kts | 115° |
| 2026-05-04 03:57 | 37.87054 | -112.96215 | 36966 ft | 572 kts | 115° |
| 2026-05-04 03:58 | 37.83161 | -112.81961 | 36954 ft | 573 kts | 115° |
| 2026-05-04 03:58 | 37.80545 | -112.72428 | 36947 ft | 573 kts | 115° |
| 2026-05-04 03:59 | 37.77938 | -112.62964 | 36934 ft | 573 kts | 115° |
| 2026-05-04 03:59 | 37.75309 | -112.53448 | 36969 ft | 573 kts | 115° |
| 2026-05-04 04:00 | 37.72675 | -112.43952 | 37024 ft | 572 kts | 115° |
| 2026-05-04 04:00 | 37.70030 | -112.34451 | 37118 ft | 572 kts | 115° |
| 2026-05-04 04:01 | 37.67380 | -112.25020 | 37144 ft | 572 kts | 115° |
| 2026-05-04 04:01 | 37.64659 | -112.15588 | 37162 ft | 571 kts | 116° |
| 2026-05-04 04:02 | 37.61927 | -112.06185 | 37145 ft | 571 kts | 116° |
| 2026-05-04 04:02 | 37.59194 | -111.96775 | 37081 ft | 571 kts | 115° |
| 2026-05-04 04:03 | 37.56477 | -111.87425 | 37015 ft | 571 kts | 116° |
| 2026-05-04 04:03 | 37.53738 | -111.78033 | 36922 ft | 571 kts | 116° |
| 2026-05-04 04:04 | 37.50990 | -111.68653 | 36887 ft | 570 kts | 116° |
| 2026-05-04 04:04 | 37.48241 | -111.59296 | 36893 ft | 569 kts | 115° |
| 2026-05-04 04:05 | 37.45483 | -111.49932 | 36885 ft | 570 kts | 116° |
| 2026-05-04 04:05 | 37.42730 | -111.40620 | 36873 ft | 570 kts | 115° |
| 2026-05-04 04:06 | 37.39953 | -111.31264 | 36871 ft | 570 kts | 115° |
| 2026-05-04 04:06 | 37.37165 | -111.21906 | 36844 ft | 570 kts | 115° |
| 2026-05-04 04:07 | 37.34392 | -111.12629 | 36855 ft | 570 kts | 115° |
| 2026-05-04 04:07 | 37.31586 | -111.03270 | 36836 ft | 569 kts | 115° |
| 2026-05-04 04:08 | 37.28798 | -110.93988 | 36833 ft | 567 kts | 115° |
| 2026-05-04 04:08 | 37.26026 | -110.84795 | 36832 ft | 564 kts | 115° |
| 2026-05-04 04:09 | 37.23236 | -110.75594 | 36836 ft | 564 kts | 115° |
| 2026-05-04 04:09 | 37.20442 | -110.66398 | 36809 ft | 563 kts | 115° |
| 2026-05-04 04:10 | 37.17644 | -110.57209 | 36852 ft | 563 kts | 116° |
| 2026-05-04 04:10 | 37.14818 | -110.47992 | 36839 ft | 569 kts | 116° |
| 2026-05-04 04:11 | 37.11990 | -110.38773 | 36859 ft | 573 kts | 115° |
| 2026-05-04 04:11 | 37.09127 | -110.29462 | 36864 ft | 571 kts | 115° |
| 2026-05-04 04:12 | 37.06290 | -110.20259 | 36876 ft | 563 kts | 115° |
| 2026-05-04 04:12 | 37.03452 | -110.11105 | 36899 ft | 563 kts | 115° |
| 2026-05-04 04:13 | 37.00616 | -110.01980 | 36882 ft | 563 kts | 115° |
| 2026-05-04 04:13 | 36.97669 | -109.92964 | 36884 ft | 561 kts | 118° |
| 2026-05-04 04:14 | 36.94483 | -109.84091 | 36885 ft | 562 kts | 119° |
| 2026-05-04 04:14 | 36.91249 | -109.75174 | 36902 ft | 563 kts | 118° |
| 2026-05-04 04:15 | 36.88072 | -109.66295 | 36892 ft | 564 kts | 118° |
| 2026-05-04 04:15 | 36.84885 | -109.57325 | 36916 ft | 564 kts | 118° |
| 2026-05-04 04:16 | 36.81695 | -109.48363 | 36902 ft | 564 kts | 118° |
| 2026-05-04 04:16 | 36.78501 | -109.39429 | 36906 ft | 564 kts | 118° |
| 2026-05-04 04:17 | 36.75295 | -109.30498 | 36928 ft | 564 kts | 118° |
| 2026-05-04 04:17 | 36.72082 | -109.21577 | 36903 ft | 565 kts | 118° |
| 2026-05-04 04:18 | 36.68881 | -109.12709 | 36921 ft | 564 kts | 118° |
| 2026-05-04 04:18 | 36.65653 | -109.03795 | 36917 ft | 564 kts | 118° |
| 2026-05-04 04:19 | 36.62415 | -108.94878 | 36911 ft | 563 kts | 118° |
| 2026-05-04 04:19 | 36.59179 | -108.85991 | 36913 ft | 562 kts | 118° |
| 2026-05-04 04:20 | 36.55961 | -108.77179 | 36915 ft | 561 kts | 118° |
| 2026-05-04 04:20 | 36.52726 | -108.68346 | 36914 ft | 560 kts | 118° |
| 2026-05-04 04:21 | 36.49484 | -108.59520 | 36920 ft | 560 kts | 118° |
| 2026-05-04 04:21 | 36.46262 | -108.50775 | 36922 ft | 561 kts | 118° |
| 2026-05-04 04:22 | 36.43008 | -108.41966 | 36936 ft | 562 kts | 118° |
| 2026-05-04 04:22 | 36.39712 | -108.33073 | 36930 ft | 569 kts | 118° |
| 2026-05-04 04:23 | 36.36381 | -108.24109 | 36905 ft | 572 kts | 118° |
| 2026-05-04 04:23 | 36.33060 | -108.15191 | 36912 ft | 572 kts | 118° |
| 2026-05-04 04:24 | 36.29711 | -108.06223 | 36940 ft | 571 kts | 118° |
| 2026-05-04 04:24 | 36.26370 | -107.97303 | 36944 ft | 569 kts | 118° |
| 2026-05-04 04:25 | 36.23055 | -107.88481 | 36951 ft | 567 kts | 118° |
| 2026-05-04 04:25 | 36.19721 | -107.79634 | 36950 ft | 565 kts | 118° |
| 2026-05-04 04:26 | 36.16393 | -107.70828 | 36954 ft | 563 kts | 118° |
| 2026-05-04 04:26 | 36.13068 | -107.62053 | 36957 ft | 562 kts | 118° |
| 2026-05-04 04:27 | 36.09742 | -107.53299 | 36964 ft | 562 kts | 118° |
| 2026-05-04 04:27 | 36.06425 | -107.44594 | 36962 ft | 562 kts | 118° |
| 2026-05-04 04:28 | 36.03083 | -107.35847 | 36967 ft | 562 kts | 118° |
| 2026-05-04 04:28 | 35.99740 | -107.27122 | 36973 ft | 562 kts | 118° |
| 2026-05-04 04:29 | 35.96408 | -107.18447 | 36967 ft | 563 kts | 118° |
| 2026-05-04 04:29 | 35.93044 | -107.09715 | 36970 ft | 563 kts | 118° |
| 2026-05-04 04:30 | 35.89675 | -107.00994 | 36955 ft | 563 kts | 118° |
| 2026-05-04 04:30 | 35.86306 | -106.92293 | 36960 ft | 562 kts | 118° |
| 2026-05-04 04:31 | 35.82928 | -106.83595 | 36916 ft | 562 kts | 118° |
| 2026-05-04 04:31 | 35.79552 | -106.74923 | 36950 ft | 560 kts | 118° |
| 2026-05-04 04:32 | 35.76174 | -106.66266 | 36969 ft | 559 kts | 118° |
| 2026-05-04 04:32 | 35.72810 | -106.57683 | 36976 ft | 560 kts | 118° |
| 2026-05-04 04:33 | 35.69419 | -106.49054 | 36991 ft | 559 kts | 117° |
| 2026-05-04 04:33 | 35.66028 | -106.40435 | 37005 ft | 559 kts | 117° |
| 2026-05-04 04:34 | 35.62636 | -106.31827 | 37025 ft | 559 kts | 117° |
| 2026-05-04 04:34 | 35.59257 | -106.23286 | 37075 ft | 559 kts | 117° |
| 2026-05-04 04:35 | 35.55845 | -106.14688 | 37092 ft | 558 kts | 117° |
| 2026-05-04 04:35 | 35.52433 | -106.06107 | 37086 ft | 558 kts | 117° |
| 2026-05-04 04:36 | 35.49050 | -105.97571 | 37047 ft | 557 kts | 116° |
| 2026-05-04 04:36 | 35.45946 | -105.88928 | 37002 ft | 557 kts | 114° |
| 2026-05-04 04:37 | 35.39897 | -105.71428 | 36936 ft | 556 kts | 114° |
| 2026-05-04 04:38 | 35.36816 | -105.62743 | 36941 ft | 555 kts | 114° |
| 2026-05-04 04:38 | 35.33732 | -105.54122 | 36939 ft | 555 kts | 114° |
| 2026-05-04 04:39 | 35.30628 | -105.45461 | 36942 ft | 554 kts | 114° |
| 2026-05-04 04:39 | 35.28051 | -105.38277 | 36938 ft | 553 kts | 114° |
| 2026-05-04 04:40 | 35.24447 | -105.28252 | 36924 ft | 553 kts | 114° |
| 2026-05-04 04:40 | 35.21338 | -105.19630 | 36903 ft | 553 kts | 114° |
| 2026-05-04 04:41 | 35.18219 | -105.11006 | 36896 ft | 553 kts | 114° |
| 2026-05-04 04:41 | 35.15097 | -105.02397 | 36883 ft | 553 kts | 114° |
| 2026-05-04 04:42 | 35.11987 | -104.93844 | 36903 ft | 554 kts | 114° |
| 2026-05-04 04:42 | 35.09379 | -104.86688 | 36931 ft | 554 kts | 115° |
| 2026-05-04 04:43 | 35.06236 | -104.78088 | 36959 ft | 554 kts | 114° |
| 2026-05-04 04:43 | 35.03089 | -104.69499 | 37015 ft | 553 kts | 114° |
| 2026-05-04 04:44 | 34.99999 | -104.61086 | 37021 ft | 553 kts | 114° |
| 2026-05-04 04:44 | 34.96807 | -104.52422 | 37011 ft | 553 kts | 114° |
| 2026-05-04 04:45 | 34.93651 | -104.43878 | 36961 ft | 552 kts | 114° |
| 2026-05-04 04:47 | 34.82597 | -104.14128 | 36839 ft | 549 kts | 114° |
| 2026-05-04 04:47 | 34.79435 | -104.05667 | 36835 ft | 549 kts | 115° |
| 2026-05-04 04:48 | 34.76287 | -103.97270 | 36838 ft | 548 kts | 115° |
| 2026-05-04 04:49 | 34.68351 | -103.76187 | 36840 ft | 548 kts | 115° |
| 2026-05-04 04:49 | 34.65166 | -103.67765 | 36846 ft | 548 kts | 115° |
| 2026-05-04 04:50 | 34.61993 | -103.59395 | 36880 ft | 548 kts | 115° |
| 2026-05-04 04:50 | 34.58792 | -103.50976 | 36920 ft | 548 kts | 115° |
| 2026-05-04 04:51 | 34.55593 | -103.42582 | 36964 ft | 548 kts | 115° |
| 2026-05-04 04:51 | 34.52385 | -103.34184 | 36995 ft | 548 kts | 115° |
| 2026-05-04 04:52 | 34.49191 | -103.25846 | 37009 ft | 548 kts | 115° |
| 2026-05-04 04:52 | 34.45976 | -103.17476 | 37046 ft | 548 kts | 115° |
| 2026-05-04 04:53 | 34.42749 | -103.09093 | 37055 ft | 547 kts | 115° |
| 2026-05-04 04:53 | 34.39525 | -103.00739 | 37047 ft | 547 kts | 115° |
| 2026-05-04 04:54 | 34.36311 | -102.92436 | 37032 ft | 547 kts | 115° |
| 2026-05-04 04:54 | 34.33078 | -102.84101 | 36995 ft | 547 kts | 115° |
| 2026-05-04 04:55 | 34.29832 | -102.75753 | 36968 ft | 546 kts | 115° |
| 2026-05-04 04:55 | 34.26592 | -102.67445 | 36937 ft | 546 kts | 115° |
| 2026-05-04 04:56 | 34.23370 | -102.59201 | 36925 ft | 545 kts | 115° |
| 2026-05-04 04:56 | 34.20120 | -102.50905 | 36937 ft | 544 kts | 115° |
| 2026-05-04 04:57 | 34.16878 | -102.42652 | 36928 ft | 544 kts | 115° |
| 2026-05-04 04:57 | 34.13632 | -102.34408 | 36925 ft | 543 kts | 115° |
| 2026-05-04 04:58 | 34.10405 | -102.26232 | 36927 ft | 542 kts | 115° |
| 2026-05-04 04:58 | 34.07156 | -102.18021 | 36915 ft | 542 kts | 115° |
| 2026-05-04 04:59 | 34.03899 | -102.09809 | 36925 ft | 541 kts | 115° |
| 2026-05-04 04:59 | 34.00647 | -102.01626 | 36933 ft | 541 kts | 115° |
| 2026-05-04 05:00 | 33.97156 | -101.93653 | 36948 ft | 540 kts | 119° |
| 2026-05-04 05:01 | 33.91602 | -101.81843 | 36959 ft | 540 kts | 120° |
| 2026-05-04 05:01 | 33.87903 | -101.73969 | 36958 ft | 540 kts | 120° |
| 2026-05-04 05:02 | 33.84241 | -101.66129 | 36971 ft | 540 kts | 120° |
| 2026-05-04 05:02 | 33.80553 | -101.58229 | 36958 ft | 541 kts | 120° |
| 2026-05-04 05:03 | 33.76854 | -101.50330 | 36944 ft | 541 kts | 120° |
| 2026-05-04 05:04 | 33.65784 | -101.26812 | 36906 ft | 544 kts | 121° |
| 2026-05-04 05:04 | 33.52247 | -100.98262 | 36936 ft | 546 kts | 121° |
| 2026-05-04 05:06 | 32.90937 | -99.71712 | 36986 ft | 554 kts | 123° |
| 2026-05-04 05:07 | 32.75282 | -99.40090 | 37001 ft | 555 kts | 124° |
| 2026-05-04 05:07 | 32.59506 | -99.08496 | 37017 ft | 555 kts | 124° |
| 2026-05-04 05:09 | 31.87697 | -97.67977 | 37058 ft | 559 kts | 125° |
| 2026-05-04 05:10 | 31.82312 | -97.57648 | 36671 ft | 561 kts | 124° |
| 2026-05-04 05:10 | 31.80263 | -97.53729 | 36881 ft | 564 kts | 124° |
| 2026-05-04 05:10 | 31.78194 | -97.49771 | 36988 ft | 569 kts | 124° |
| 2026-05-04 05:10 | 31.76110 | -97.45789 | 37041 ft | 574 kts | 124° |
| 2026-05-04 05:11 | 31.71872 | -97.37702 | 37091 ft | 585 kts | 124° |
| 2026-05-04 05:11 | 31.67600 | -97.29564 | 37101 ft | 592 kts | 124° |
| 2026-05-04 05:12 | 31.63052 | -97.21532 | 37089 ft | 590 kts | 128° |
| 2026-05-04 05:12 | 31.58247 | -97.13720 | 37087 ft | 585 kts | 129° |
| 2026-05-04 05:13 | 31.55869 | -97.09880 | 36712 ft | 578 kts | 129° |
| 2026-05-04 05:13 | 31.53502 | -97.06048 | 35814 ft | 581 kts | 129° |
| 2026-05-04 05:13 | 31.51138 | -97.02205 | 34958 ft | 581 kts | 128° |
| 2026-05-04 05:13 | 31.48803 | -96.98396 | 34072 ft | 582 kts | 128° |
| 2026-05-04 05:14 | 31.46436 | -96.94529 | 33027 ft | 583 kts | 128° |
| 2026-05-04 05:14 | 31.44072 | -96.90664 | 32025 ft | 583 kts | 128° |
| 2026-05-04 05:14 | 31.41708 | -96.86804 | 31003 ft | 582 kts | 128° |
| 2026-05-04 05:14 | 31.39346 | -96.82951 | 29951 ft | 581 kts | 128° |
| 2026-05-04 05:15 | 31.37001 | -96.79133 | 29233 ft | 570 kts | 128° |
| 2026-05-04 05:15 | 31.34706 | -96.75398 | 28534 ft | 560 kts | 128° |
| 2026-05-04 05:15 | 31.32450 | -96.71734 | 27890 ft | 551 kts | 128° |
| 2026-05-04 05:15 | 31.30248 | -96.68162 | 27265 ft | 543 kts | 128° |
| 2026-05-04 05:16 | 31.28053 | -96.64606 | 26662 ft | 536 kts | 128° |
| 2026-05-04 05:16 | 31.25878 | -96.61085 | 26029 ft | 530 kts | 127° |
| 2026-05-04 05:16 | 31.23727 | -96.57606 | 25420 ft | 524 kts | 127° |
| 2026-05-04 05:16 | 31.21603 | -96.54174 | 24802 ft | 518 kts | 127° |
| 2026-05-04 05:17 | 31.19498 | -96.50775 | 24181 ft | 513 kts | 127° |
| 2026-05-04 05:17 | 31.17440 | -96.47454 | 23577 ft | 508 kts | 127° |
| 2026-05-04 05:17 | 31.15372 | -96.44120 | 22867 ft | 503 kts | 127° |
| 2026-05-04 05:17 | 31.13337 | -96.40841 | 22249 ft | 496 kts | 127° |
| 2026-05-04 05:18 | 31.11323 | -96.37598 | 21646 ft | 490 kts | 127° |
| 2026-05-04 05:18 | 31.09330 | -96.34391 | 21058 ft | 484 kts | 128° |
| 2026-05-04 05:18 | 31.07367 | -96.31237 | 20480 ft | 478 kts | 128° |
| 2026-05-04 05:18 | 31.05422 | -96.28113 | 19911 ft | 473 kts | 128° |
| 2026-05-04 05:19 | 31.03492 | -96.25016 | 19333 ft | 468 kts | 128° |
| 2026-05-04 05:19 | 31.01584 | -96.21964 | 18758 ft | 461 kts | 129° |
| 2026-05-04 05:19 | 30.99459 | -96.19295 | 18135 ft | 450 kts | 145° |
| 2026-05-04 05:19 | 30.96817 | -96.17486 | 17549 ft | 433 kts | 157° |
| 2026-05-04 05:20 | 30.94143 | -96.15906 | 16965 ft | 429 kts | 155° |
| 2026-05-04 05:20 | 30.91516 | -96.14261 | 16407 ft | 426 kts | 154° |
| 2026-05-04 05:20 | 30.88932 | -96.12599 | 15860 ft | 422 kts | 154° |
| 2026-05-04 05:20 | 30.86375 | -96.10948 | 15299 ft | 418 kts | 154° |
| 2026-05-04 05:21 | 30.83834 | -96.09310 | 14751 ft | 415 kts | 154° |
| 2026-05-04 05:21 | 30.81320 | -96.07694 | 14248 ft | 410 kts | 153° |
| 2026-05-04 05:21 | 30.78865 | -96.06117 | 13739 ft | 405 kts | 153° |
| 2026-05-04 05:21 | 30.76411 | -96.04542 | 13391 ft | 396 kts | 153° |
| 2026-05-04 05:22 | 30.74027 | -96.03011 | 13133 ft | 385 kts | 153° |
| 2026-05-04 05:22 | 30.71713 | -96.01526 | 12954 ft | 374 kts | 153° |
| 2026-05-04 05:22 | 30.69456 | -96.00080 | 12669 ft | 366 kts | 153° |
| 2026-05-04 05:22 | 30.67240 | -95.98662 | 12358 ft | 360 kts | 153° |
| 2026-05-04 05:23 | 30.65074 | -95.97275 | 12048 ft | 352 kts | 153° |
| 2026-05-04 05:23 | 30.62945 | -95.95915 | 11408 ft | 355 kts | 153° |
| 2026-05-04 05:23 | 30.60778 | -95.94530 | 11000 ft | 351 kts | 153° |
| 2026-05-04 05:23 | 30.58658 | -95.93174 | 10738 ft | 343 kts | 153° |
| 2026-05-04 05:24 | 30.56606 | -95.91862 | 10651 ft | 330 kts | 153° |
| 2026-05-04 05:24 | 30.54634 | -95.90601 | 10562 ft | 317 kts | 154° |
| 2026-05-04 05:24 | 30.52731 | -95.89386 | 10458 ft | 306 kts | 154° |
| 2026-05-04 05:24 | 30.50900 | -95.88218 | 10358 ft | 296 kts | 154° |
| 2026-05-04 05:25 | 30.49080 | -95.87181 | 10002 ft | 287 kts | 166° |
| 2026-05-04 05:25 | 30.47150 | -95.86807 | 10000 ft | 279 kts | 177° |
| 2026-05-04 05:25 | 30.45221 | -95.86613 | 9977 ft | 277 kts | 178° |
| 2026-05-04 05:25 | 30.43305 | -95.86425 | 9739 ft | 276 kts | 178° |
| 2026-05-04 05:26 | 30.41394 | -95.86230 | 9397 ft | 275 kts | 177° |
| 2026-05-04 05:26 | 30.39490 | -95.86029 | 9019 ft | 270 kts | 177° |
| 2026-05-04 05:26 | 30.37636 | -95.85828 | 8302 ft | 268 kts | 177° |
| 2026-05-04 05:26 | 30.35773 | -95.85624 | 7524 ft | 269 kts | 176° |
| 2026-05-04 05:27 | 30.33928 | -95.85420 | 7166 ft | 264 kts | 176° |
| 2026-05-04 05:28 | 30.22400 | -95.83910 | 5964 ft | 222 kts | 152° |
| 2026-05-04 05:29 | 30.21267 | -95.82763 | 5908 ft | 217 kts | 132° |
| 2026-05-04 05:29 | 30.19901 | -95.80949 | 5774 ft | 230 kts | 132° |
| 2026-05-04 05:29 | 30.19196 | -95.80009 | 5672 ft | 228 kts | 132° |
| 2026-05-04 05:29 | 30.18156 | -95.78624 | 5555 ft | 227 kts | 132° |
| 2026-05-04 05:31 | 30.10960 | -95.69034 | 4622 ft | 221 kts | 132° |
| 2026-05-04 05:31 | 30.09999 | -95.67757 | 4512 ft | 219 kts | 132° |
| 2026-05-04 05:32 | 30.09007 | -95.66437 | 4386 ft | 217 kts | 131° |
| 2026-05-04 05:32 | 30.08021 | -95.65127 | 4263 ft | 215 kts | 132° |
| 2026-05-04 05:32 | 30.07052 | -95.63841 | 4221 ft | 215 kts | 131° |
| 2026-05-04 05:33 | 30.05070 | -95.61211 | 4152 ft | 219 kts | 131° |
| 2026-05-04 05:33 | 30.04070 | -95.59881 | 4152 ft | 220 kts | 131° |
| 2026-05-04 05:33 | 30.03048 | -95.58528 | 3946 ft | 226 kts | 131° |
| 2026-05-04 05:33 | 30.02022 | -95.57169 | 3803 ft | 221 kts | 131° |
| 2026-05-04 05:34 | 30.01030 | -95.55853 | 3661 ft | 214 kts | 131° |
| 2026-05-04 05:34 | 30.00082 | -95.54587 | 3564 ft | 200 kts | 127° |
| 2026-05-04 05:34 | 29.99597 | -95.53149 | 3402 ft | 189 kts | 97° |
| 2026-05-04 05:34 | 29.99470 | -95.51727 | 3309 ft | 171 kts | 98° |
| 2026-05-04 05:35 | 29.99376 | -95.50396 | 3204 ft | 166 kts | 94° |
| 2026-05-04 05:35 | 29.99350 | -95.49089 | 3124 ft | 162 kts | 92° |
| 2026-05-04 05:35 | 29.99346 | -95.47817 | 2880 ft | 154 kts | 92° |
| 2026-05-04 05:35 | 29.99345 | -95.46620 | 2575 ft | 147 kts | 93° |
| 2026-05-04 05:36 | 29.99344 | -95.45430 | 2275 ft | 148 kts | 94° |
| 2026-05-04 05:36 | 29.99345 | -95.44250 | 1946 ft | 146 kts | 95° |
| 2026-05-04 05:36 | 29.99344 | -95.43085 | 1611 ft | 145 kts | 95° |
| 2026-05-04 05:36 | 29.99344 | -95.41925 | 1292 ft | 145 kts | 94° |
| 2026-05-04 05:37 | 29.99344 | -95.40773 | 1191 ft | 144 kts | 95° |
| 2026-05-04 05:37 | 29.99344 | -95.39607 | 1146 ft | 149 kts | 95° |
| 2026-05-04 05:37 | 29.99339 | -95.38396 | 820 ft | 152 kts | 94° |
| 2026-05-04 05:38 | 29.99344 | -95.36078 | 236 ft | 142 kts | 91° |
| 2026-05-04 05:38 | 29.99343 | -95.34934 | 118 ft | 137 kts | 92° |
| 2026-05-04 05:38 | 29.99343 | -95.33957 | 110 ft | 102 kts | 91° |
| 2026-05-04 05:38 | 29.99345 | -95.33360 | 110 ft | 55 kts | 90° |
| 2026-05-04 05:39 | 29.99344 | -95.33138 | 111 ft | 24 kts | 90° |